Bango, Nevada Weather observations

Data are for 10 minute period ending at time listed.
 Day   Time    Ave.   Ave.  Ave.  Vector   Max.   Stn.    Total    Solar   Ave.  
  of    of     Air    Rel.  Wind   Wind    Wind   Baro.  Precip.   Rad.    Soil  
Year   Day     Temp.  Hum.  Speed  Dir.    Gust   Pres.                    Temp. 
2014   (PST)    F      %     mph   deg.    mph     mb.     in.     W/m2     F    
--------------------------------------------------------------------------------- 
 350   17:30   44.4    49   11.6   132     16.7   869.0    0.00       0     7.3  
 350   17:40   43.0    52    8.8   104     12.3   869.2    0.00       0     7.4  
 350   17:50   41.9    54   10.7   112     14.1   869.2    0.00       0     7.4  
 350   18:00   41.7    54    9.7   105     14.9   869.3    0.00       0     7.4  
 350   18:10   40.7    56   10.0   109     14.9   869.4    0.00       0     7.4  
 350   18:20   41.0    56   11.2   114     14.1   869.5    0.00       0     7.4  
 350   18:30   40.6    57    7.2   134     13.2   869.7    0.00       0     7.4  
 350   18:40   39.8    59    3.3   209      6.0   869.8    0.00       0     7.4  
 350   18:50   39.6    60    1.8   204      4.2   869.8    0.00       0     7.4  
 350   19:00   39.2    61    3.1   339      7.8   869.9    0.00       0     7.4  
 350   19:10   39.1    61    3.2    15      6.9   869.9    0.00       0     7.3  
 350   19:20   39.7    60    2.3    69      5.1   870.0    0.00       0     7.3  
 350   19:30   39.5    60    2.5     0      5.1   870.1    0.00       0     7.3  
 350   19:40   39.4    60    4.3   144     10.5   870.1    0.00       0     7.2  
 350   19:50   40.1    59    7.1   131     13.2   870.0    0.00       0     7.2  
 350   20:00   39.8    59    7.3   135     12.3   869.9    0.00       0     7.2  
 350   20:10   40.0    58    7.6   140     12.3   869.9    0.00       0     7.1  
 350   20:20   39.3    60    5.9   135     12.3   869.8    0.00       0     7.1  
 350   20:30   39.1    60    7.1   138     14.1   869.9    0.00       0     7.1  
 350   20:40   38.7    61    3.1   146      6.9   869.9    0.00       0     7.0  
 350   20:50   38.1    62    4.5   209      8.7   869.9    0.00       0     7.0  
 350   21:00   38.0    62    5.7   176     12.3   869.9    0.00       0     6.9  
 350   21:10   37.6    63    5.6   130     10.5   870.0    0.00       0     6.9  
 350   21:20   36.6    66    3.3   110      5.1   870.0    0.00       0     6.8  
 350   21:30   36.6    66    2.5   116      4.2   870.0    0.00       0     6.8  
 350   21:40   36.4    66    2.6   122      5.1   870.0    0.00       0     6.8  
 350   21:50   36.5    66    2.2   298      4.2   870.1    0.00       0     6.7  
 350   22:00   36.0    67    5.6    20      8.7   870.1    0.00       0     6.7  
 350   22:10   37.6    64    7.9    80     14.1   870.2    0.00       0     6.6  
 350   22:20   37.4    65    8.7    90     14.1   870.3    0.00       0     6.6  
 350   22:30   37.2    65    7.5   102     11.4   870.4    0.00       0     6.5  
 350   22:40   36.8    67    7.2   109      9.6   870.4    0.00       0     6.5  
 350   22:50   37.0    66    6.5   124      8.7   870.4    0.00       0     6.4  
 350   23:00   37.8    65    9.7   132     14.9   870.4    0.00       0     6.4  
 350   23:10   38.3    64    9.5   142     14.1   870.4    0.00       0     6.3  
 350   23:20   38.0    64    7.4   138     10.5   870.4    0.00       0     6.3  
 350   23:30   37.8    64    5.1   132      8.7   870.4    0.00       0     6.2  
 350   23:40   37.7    64    3.5     7      6.9   870.4    0.00       0     6.2  
 350   23:50   37.3    66    4.2    38      8.7   870.3    0.00       0     6.1  
 351    0:00   38.4    62    5.1   135     10.5   870.2    0.00       0     6.1  
 351    0:10   38.0    64    3.9   148      6.9   870.2    0.00       0     6.1  
 351    0:20   37.7    65    2.9   107      5.1   870.1    0.00       0     6.0  
 351    0:30   37.6    65    2.2    18      4.2   870.1    0.00       0     6.0  
 351    0:40   38.0    64    3.7    71      6.9   870.1    0.00       0     6.0  
 351    0:50   38.2    63    4.3    90      6.9   870.1    0.00       0     5.9  
 351    1:00   37.9    64    5.3    89      6.9   870.0    0.00       0     5.9  
 351    1:10   37.7    65    4.8    86      6.9   869.9    0.00       0     5.8  
 351    1:20   36.1    70    4.6   337      6.0   869.9    0.00       0     5.8  
 351    1:30   36.2    69    3.7     8      6.0   869.9    0.00       0     5.8  
 351    1:40   36.3    68    4.6    38      6.9   870.0    0.00       0     5.8  
 351    1:50   34.9    72    5.2     6      6.9   870.1    0.00       0     5.7  
 351    2:00   34.7    73    3.1   326      5.1   870.1    0.00       0     5.7  
 351    2:10   35.7    71    6.1   357      7.8   870.1    0.00       0     5.7  
 351    2:20   35.9    70    6.1     9      8.7   870.1    0.00       0     5.6  
 351    2:30   35.6    71    6.6   345      7.8   870.1    0.00       0     5.6  
 351    2:40   35.4    72    5.8   358      7.8   870.2    0.00       0     5.6  
 351    2:50   35.0    73    4.5    30      5.1   870.2    0.00       0     5.6  
 351    3:00   34.9    73    3.6    21      5.1   870.2    0.00       0     5.5  
 351    3:10   34.7    74    6.1   344      7.8   870.2    0.00       0     5.5  
 351    3:20   35.5    71    5.3     5      6.9   870.2    0.00       0     5.5  
 351    3:30   35.4    71    5.5   353      6.9   870.1    0.00       0     5.5  
 351    3:40   35.1    72    5.8     3      6.9   870.1    0.00       0     5.4  
 351    3:50   35.1    71    5.3     9      6.9   870.1    0.00       0     5.4  
 351    4:00   34.8    72    5.2     5      6.0   870.1    0.00       0     5.4  
 351    4:10   34.6    72    4.8   356      6.0   870.2    0.00       0     5.4  
 351    4:20   34.3    74    4.4   347      5.1   870.2    0.00       0     5.4  
 351    4:30   34.5    73    4.5   358      6.0   870.2    0.00       0     5.3  
 351    4:40   34.2    73    5.9   348      6.9   870.2    0.00       0     5.3  
 351    4:50   33.9    74    6.9   339      7.8   870.4    0.00       0     5.3  
 351    5:00   33.9    75    6.8   343      8.7   870.4    0.00       0     5.3  
 351    5:10   33.9    75    7.3   351      8.7   870.5    0.00       0     5.2  
 351    5:20   34.2    74    7.2   348      9.6   870.6    0.00       0     5.2  
 351    5:30   34.4    74    6.2   345      8.7   870.7    0.00       0     5.2  
 351    5:40   34.2    75    5.8   351      6.9   870.8    0.00       0     5.2  
 351    5:50   34.0    76    5.7    11      6.9   870.8    0.00       0     5.2  
 351    6:00   33.8    76    5.2   343      6.0   871.0    0.00       0     5.1  
 351    6:10   33.8    76    3.9   345      5.1   871.0    0.00       0     5.1  
 351    6:20   34.0    76    3.2    16      4.2   871.0    0.00       0     5.1  
 351    6:30   33.9    76    2.1    19      3.3   871.1    0.00       0     5.1  
 351    6:40   33.4    77    3.0   331      5.1   871.2    0.00       0     5.0  
 351    6:50   33.2    79    4.1   330      5.1   871.2    0.00       0     5.0  
 351    7:00   33.4    78    4.5   336      6.0   871.2    0.00       0     5.0  
 351    7:10   33.3    79    5.0   334      6.0   871.4    0.00       1     5.0  
 351    7:20   33.4    79    5.1   332      6.0   871.5    0.00       2     4.9  
 351    7:30   33.6    79    3.5   332      5.1   871.6    0.00       4     4.9  
 351    7:40   33.6    79    2.2   334      4.2   871.6    0.00       8     4.9  
 351    7:50   33.7    78    1.4   285      2.4   871.7    0.00      20     4.9  
 351    8:00   33.5    79    1.8   212      2.4   871.7    0.00      45     4.9  
 351    8:10   33.0    82    3.1   262      4.2   871.8    0.00      59     4.8  
 351    8:20   33.3    82    1.7   247      3.3   871.9    0.00     112     4.8  
 351    8:30   34.3    80    1.8   188      3.3   871.9    0.00     168     4.8  
 351    8:40   36.1    76    1.7   210      2.4   871.9    0.00     202     4.8  
 351    8:50   37.3    72    1.5   173      3.3   872.0    0.00     216     4.8  
 351    9:00   37.8    72    3.6   201      4.2   872.0    0.00     239     4.8  
 351    9:10   39.0    69    3.7   226      5.1   872.2    0.00     290     4.8  
 351    9:20   40.5    64    4.7   233      6.0   872.2    0.00     315     4.8  
 351    9:30   41.8    58    2.9   215      5.1   872.2    0.00     337     4.8  
 351    9:40   43.9    54    1.1   214      2.4   872.3    0.00     357     4.8  
 351    9:50   45.0    51    2.4   143      4.2   872.2    0.00     378     4.8  
 351   10:00   44.8    50    2.4   142      4.2   872.2    0.00     398     4.8  
 351   10:10   44.0    52    4.3   169      7.8   872.1    0.00     416     4.8  
 351   10:20   44.0    52    4.2   177      6.9   872.2    0.00     433     4.8  
 351   10:30   44.1    51    4.6   185      6.9   872.1    0.00     448     4.8  
 351   10:40   44.2    51    4.9   160      6.9   872.0    0.00     462     4.8  
 351   10:50   44.9    50    4.3   171      6.9   871.9    0.00     474     4.8  
 351   11:00   45.2    50    4.4   188      6.9   871.8    0.00     484     4.8  
 351   11:10   46.4    48    3.9   207      9.6   871.7    0.00     492     4.9  
 351   11:20   46.7    46    5.7   220      9.6   871.6    0.00     499     4.9  
 351   11:30   47.2    45    6.3   206      9.6   871.6    0.00     504     4.9  
 351   11:40   47.4    44    6.0   201      9.6   871.5    0.00     513     5.0  
 351   11:50   47.7    43    6.1   216      9.6   871.4    0.00     470     5.1  
 351   12:00   47.7    42    4.8   204      8.7   871.3    0.00     499     5.1  
 351   12:10   48.3    41    5.7   194      9.6   871.2    0.00     565     5.2  
 351   12:20   48.6    40    6.1   192     10.5   871.0    0.00     427     5.3  
 351   12:30   48.2    39    6.5   194     13.2   870.9    0.00     424     5.3  
 351   12:40   48.7    38    6.1   182      9.6   870.8    0.00     507     5.4  
 351   12:50   49.2    37    6.0   183      9.6   870.6    0.00     492     5.5  
 351   13:00   49.3    36    7.6   186     11.4   870.5    0.00     486     5.6  
 351   13:10   49.5    36    8.4   183     13.2   870.4    0.00     482     5.7  
 351   13:20   49.2    36    8.2   193     14.1   870.3    0.00     410     5.8  
 351   13:30   48.7    36    7.6   190     12.3   870.3    0.00     217     6.0  
 351   13:40   48.4    37    7.6   173     10.5   870.3    0.00     230     6.1  
 351   13:50   48.7    37    7.5   174      9.6   870.4    0.00     209     6.2  
 351   14:00   48.8    37    6.6   200     11.4   870.5    0.00     226     6.3  
 351   14:10   48.6    37    7.2   200     11.4   870.6    0.00     164     6.4  
 351   14:20   48.5    37    5.9   189      9.6   870.6    0.00     141     6.5  
 351   14:30   48.6    37    7.2   198     11.4   870.7    0.00     118     6.6  
 351   14:40   48.6    38    5.4   216      7.8   870.8    0.00      76     6.7  
 351   14:50   48.6    38    7.2   242     12.3   870.9    0.00      57     6.8  
 351   15:00   48.3    39   10.8   252     15.8   871.0    0.00      57     6.9  
 351   15:10   48.1    40    9.3   255     12.3   871.2    0.00      58     7.0  
 351   15:20   48.0    40   10.0   256     19.4   871.2    0.00      42     7.1  
 351   15:30   47.2    44    8.9   240     19.4   871.3    0.00      39     7.2  
 351   15:40   47.0    44    4.9   270      6.9   871.4    0.00      31     7.2  
 351   15:50   47.1    43    4.5   300      6.0   871.4    0.00      22     7.3  
 351   16:00   47.0    44    5.2   302     10.5   871.4    0.00      16     7.3  
 351   16:10   46.3    50    9.4   326     12.3   871.5    0.00      10     7.4  
 351   16:20   45.7    52    6.8   337      9.6   871.6    0.00       7     7.5  
 351   16:30   45.4    52    5.5   346      6.9   871.7    0.00       4     7.5  
 351   16:40   44.9    53    5.1    10      6.9   871.8    0.00       2     7.5  
 351   16:50   44.3    55    5.0    10      6.0   871.8    0.00       1     7.6  
 351   17:00   43.6    57    6.5   319      8.7   871.9    0.00       0     7.6  
 351   17:10   43.4    59    6.8   322      7.8   872.1    0.00       0     7.6  
 351   17:20   43.0    60    6.6   331      7.8   872.3    0.00       0     7.6  

Return to Garden Spring, Nevada graphs page.


Western Regional Climate Center,wrcc@dri.edu